createdAt,value
2019-01-08T00:00:53.548Z,99653.30
2019-01-08T00:03:23.101Z,99640.02
2019-01-08T00:05:52.459Z,99644.91
2019-01-08T00:08:22.065Z,99630.61
2019-01-08T00:10:51.538Z,99619.98
2019-01-08T00:13:21.104Z,99611.59
2019-01-08T00:15:50.783Z,99600.84
2019-01-08T00:18:20.367Z,99584.34
2019-01-08T00:20:49.771Z,99582.15
2019-01-08T00:23:19.210Z,99578.64
2019-01-08T00:25:48.749Z,99571.92
2019-01-08T00:28:18.324Z,99563.50
2019-01-08T00:30:47.994Z,99560.80
2019-01-08T00:33:17.676Z,99548.34
2019-01-08T00:35:47.264Z,99541.13
2019-01-08T00:38:16.992Z,99538.12
2019-01-08T00:40:46.470Z,99526.83
2019-01-08T00:43:15.892Z,99519.28
2019-01-08T00:45:45.371Z,99516.92
2019-01-08T00:48:14.850Z,99504.99
2019-01-08T00:50:44.257Z,99506.34
2019-01-08T00:53:13.833Z,99507.19
2019-01-08T00:55:43.428Z,99503.64
2019-01-08T00:58:13.195Z,99501.80
2019-01-08T01:00:42.665Z,99493.73
2019-01-08T01:03:12.349Z,99489.70
2019-01-08T01:05:41.810Z,99486.16
2019-01-08T01:08:11.478Z,99480.28
2019-01-08T01:10:40.918Z,99476.75
2019-01-08T01:13:10.328Z,99468.19
2019-01-08T01:15:39.939Z,99468.68
2019-01-08T01:18:09.385Z,99459.77
2019-01-08T01:20:38.861Z,99457.22
2019-01-08T01:23:08.408Z,99450.84
2019-01-08T01:25:38.075Z,99435.70
2019-01-08T01:28:07.460Z,99436.23
2019-01-08T01:30:36.805Z,99438.92
2019-01-08T01:33:06.334Z,99434.03
2019-01-08T01:35:35.864Z,99413.02
2019-01-08T01:38:05.382Z,99407.29
2019-01-08T01:40:34.943Z,99396.03
2019-01-08T01:43:06.363Z,99398.41
2019-01-08T01:45:36.015Z,99395.36
2019-01-08T01:48:05.657Z,99392.33
2019-01-08T01:50:35.163Z,99380.22
2019-01-08T01:53:04.667Z,99370.00
2019-01-08T01:55:34.177Z,99365.61
2019-01-08T01:58:03.634Z,99359.39
2019-01-08T02:00:33.069Z,99355.35
2019-01-08T02:03:02.656Z,99343.25
2019-01-08T02:05:32.222Z,99338.90
2019-01-08T02:08:01.713Z,99341.59
2019-01-08T02:10:31.215Z,99328.64
2019-01-08T02:13:00.680Z,99325.95
2019-01-08T02:15:30.323Z,99316.54
2019-01-08T02:17:59.692Z,99312.16
2019-01-08T02:20:29.153Z,99304.59
2019-01-08T02:22:58.798Z,99299.73
2019-01-08T02:25:28.273Z,99289.80
2019-01-08T02:27:57.716Z,99288.98
2019-01-08T02:30:27.216Z,99279.57
2019-01-08T02:32:56.773Z,99276.03
2019-01-08T02:35:26.323Z,99276.03
2019-01-08T02:37:55.707Z,99263.59
2019-01-08T02:40:25.179Z,99257.89
2019-01-08T02:42:54.704Z,99262.73
2019-01-08T02:45:24.031Z,99251.17
2019-01-08T02:47:53.538Z,99243.10
2019-01-08T02:50:23.062Z,99237.19
2019-01-08T02:52:52.506Z,99237.19
2019-01-08T02:55:21.979Z,99233.34
2019-01-08T02:57:51.439Z,99231.50
2019-01-08T03:00:21.061Z,99223.94
2019-01-08T03:02:50.600Z,99219.41
2019-01-08T03:05:20.962Z,99209.64
2019-01-08T03:07:50.407Z,99206.45
2019-01-08T03:10:19.875Z,99204.77
2019-01-08T03:12:49.534Z,99197.39
2019-01-08T03:15:19.216Z,99195.20
2019-01-08T03:17:48.707Z,99181.75
2019-01-08T03:20:18.152Z,99174.19
2019-01-08T03:22:47.649Z,99178.22
2019-01-08T03:25:17.185Z,99172.34
2019-01-08T03:27:46.649Z,99164.43
2019-01-08T03:30:16.156Z,99159.40
2019-01-08T03:32:45.897Z,99164.78
2019-01-08T03:35:15.310Z,99155.37
2019-01-08T03:37:44.822Z,99150.83
2019-01-08T03:40:14.343Z,99141.92
2019-01-08T03:42:43.890Z,99143.27
2019-01-08T03:45:13.319Z,99135.55
2019-01-08T03:47:42.727Z,99127.98
2019-01-08T03:50:12.253Z,99122.25
2019-01-08T03:52:41.610Z,99119.41
2019-01-08T03:55:11.090Z,99117.23
2019-01-08T03:57:40.545Z,99112.34
2019-01-08T04:00:11.484Z,99113.19
2019-01-08T04:02:40.940Z,99109.66
2019-01-08T04:05:10.339Z,99102.94
2019-01-08T04:07:39.713Z,99106.97
2019-01-08T04:10:09.550Z,99104.28
2019-01-08T04:12:38.924Z,99100.25
2019-01-08T04:15:08.456Z,99093.18
2019-01-08T04:17:38.039Z,99094.02
2019-01-08T04:20:07.595Z,99087.30
2019-01-08T04:22:36.976Z,99082.42
2019-01-08T04:25:06.460Z,99070.02
2019-01-08T04:27:35.912Z,99067.33
2019-01-08T04:30:05.508Z,99071.36
2019-01-08T04:32:35.070Z,99067.82
2019-01-08T04:35:04.466Z,99075.89
2019-01-08T04:37:34.031Z,99074.20
2019-01-08T04:40:03.491Z,99066.63
2019-01-08T04:42:33.117Z,99065.29
2019-01-08T04:45:02.913Z,99065.47
2019-01-08T04:47:32.896Z,99074.70
2019-01-08T04:50:02.496Z,99066.31
2019-01-08T04:52:31.972Z,99054.22
2019-01-08T04:55:01.581Z,99050.69
2019-01-08T04:57:31.058Z,99054.72
2019-01-08T05:00:00.695Z,99050.34
2019-01-08T05:02:30.071Z,99044.16
2019-01-08T05:04:59.643Z,99045.31
2019-01-08T05:07:29.105Z,99038.24
2019-01-08T05:09:58.524Z,99025.33
2019-01-08T05:12:27.889Z,99031.52
2019-01-08T05:14:57.496Z,99031.21
2019-01-08T05:17:26.992Z,99032.20
2019-01-08T05:19:56.612Z,99033.05
2019-01-08T05:22:26.259Z,99029.02
2019-01-08T05:24:55.758Z,99025.48
2019-01-08T05:27:25.527Z,99026.83
2019-01-08T05:29:55.110Z,99020.61
2019-01-08T05:32:24.682Z,99030.02
2019-01-08T05:34:54.255Z,99028.36
2019-01-08T05:37:23.666Z,99022.98
2019-01-08T05:39:53.181Z,99017.61
2019-01-08T05:42:22.606Z,99018.95
2019-01-08T05:44:52.050Z,99016.77
2019-01-08T05:47:21.740Z,99024.33
2019-01-08T05:49:51.299Z,99018.11
2019-01-08T05:52:20.943Z,99014.92
2019-01-08T05:54:50.273Z,99012.23
2019-01-08T05:57:21.748Z,99012.23
2019-01-08T05:59:51.158Z,99008.20
2019-01-08T06:02:20.775Z,99014.42
2019-01-08T06:04:50.182Z,99014.73
2019-01-08T06:07:19.889Z,99010.39
2019-01-08T06:09:49.239Z,99015.23
2019-01-08T06:12:18.743Z,99017.11
2019-01-08T06:14:48.220Z,99013.89
2019-01-08T06:17:17.848Z,99019.27
2019-01-08T06:19:47.209Z,99019.61
2019-01-08T06:22:16.653Z,99009.36
2019-01-08T06:24:46.393Z,99008.52
2019-01-08T06:27:16.035Z,99003.67
2019-01-08T06:29:45.601Z,99014.08
2019-01-08T06:32:15.056Z,99016.27
2019-01-08T06:34:44.494Z,99012.73
2019-01-08T06:37:14.161Z,99007.55
2019-01-08T06:39:43.861Z,98999.48
2019-01-08T06:42:13.329Z,99003.52
2019-01-08T06:44:42.795Z,99004.02
2019-01-08T06:47:12.383Z,98992.91
2019-01-08T06:49:41.926Z,99001.47
2019-01-08T06:52:11.402Z,99006.35
2019-01-08T06:54:41.013Z,99010.57
2019-01-08T06:57:10.644Z,99005.20
2019-01-08T06:59:40.149Z,99001.66
2019-01-08T07:02:09.569Z,99006.54
2019-01-08T07:04:39.390Z,98996.28
2019-01-08T07:07:08.950Z,98996.78
2019-01-08T07:09:38.392Z,98994.09
2019-01-08T07:12:07.860Z,98998.62
2019-01-08T07:14:37.312Z,98992.91
2019-01-08T07:17:06.773Z,98984.31
2019-01-08T07:19:36.270Z,98991.56
2019-01-08T07:22:05.640Z,98989.69
2019-01-08T07:24:35.337Z,98991.56
2019-01-08T07:27:04.856Z,98989.88
2019-01-08T07:29:34.482Z,98987.37
2019-01-08T07:32:04.072Z,98988.72
2019-01-08T07:34:33.551Z,98993.56
2019-01-08T07:37:02.954Z,98995.25
2019-01-08T07:39:32.438Z,98996.25
2019-01-08T07:42:01.987Z,98993.25
2019-01-08T07:44:31.453Z,98986.03
2019-01-08T07:47:00.956Z,98990.88
2019-01-08T07:49:30.528Z,98998.44
2019-01-08T07:51:59.989Z,98997.44
2019-01-08T07:54:29.398Z,99001.78
2019-01-08T07:56:58.938Z,99000.97
2019-01-08T07:59:28.419Z,99003.51
2019-01-08T08:01:57.802Z,99005.20
2019-01-08T08:04:27.358Z,99003.66
2019-01-08T08:06:56.840Z,99009.88
2019-01-08T08:09:26.206Z,99012.92
2019-01-08T08:11:55.767Z,99011.39
2019-01-08T08:14:25.364Z,99009.55
2019-01-08T08:16:54.850Z,99009.70
2019-01-08T08:19:24.403Z,99008.67
2019-01-08T08:21:53.971Z,99004.98
2019-01-08T08:24:23.447Z,99007.17
2019-01-08T08:26:52.928Z,99009.36
2019-01-08T08:29:22.406Z,99004.30
2019-01-08T08:31:51.932Z,99012.36
2019-01-08T08:34:21.543Z,99012.20
2019-01-08T08:36:51.226Z,99007.83
2019-01-08T08:39:20.830Z,99008.17
2019-01-08T08:41:50.307Z,99009.17
2019-01-08T08:44:19.800Z,99010.02
2019-01-08T08:46:49.312Z,99013.86
2019-01-08T08:49:18.991Z,99016.55
2019-01-08T08:51:48.538Z,99015.20
2019-01-08T08:54:17.985Z,99011.17
2019-01-08T08:56:47.506Z,99012.86
2019-01-08T08:59:16.998Z,99009.67
2019-01-08T09:01:46.595Z,99009.17
2019-01-08T09:04:16.102Z,99015.37
2019-01-08T09:06:45.573Z,99016.71
2019-01-08T09:09:15.139Z,99015.71
2019-01-08T09:11:44.685Z,99023.28
2019-01-08T09:14:14.138Z,99024.63
2019-01-08T09:16:43.762Z,99025.47
2019-01-08T09:19:13.225Z,99023.59
2019-01-08T09:21:42.793Z,99025.28
2019-01-08T09:24:12.325Z,99026.97
2019-01-08T09:26:41.744Z,99031.00
2019-01-08T09:29:11.358Z,99023.94
2019-01-08T09:31:40.872Z,99030.47
2019-01-08T09:34:10.278Z,99029.97
2019-01-08T09:36:39.750Z,99030.81
2019-01-08T09:39:09.176Z,99029.12
2019-01-08T09:41:38.638Z,99025.94
2019-01-08T09:44:08.177Z,99028.62
2019-01-08T09:46:37.597Z,99027.63
2019-01-08T09:49:06.996Z,99024.94
2019-01-08T09:51:36.438Z,99022.75
2019-01-08T09:54:05.961Z,99026.78
2019-01-08T09:56:35.364Z,99028.97
2019-01-08T09:59:04.900Z,99028.13
2019-01-08T10:01:34.461Z,99028.47
2019-01-08T10:04:04.072Z,99024.94
2019-01-08T10:06:33.629Z,99020.91
2019-01-08T10:09:04.048Z,99020.91
2019-01-08T10:11:33.614Z,99025.78
2019-01-08T10:14:03.243Z,99030.81
2019-01-08T10:16:32.917Z,99028.47
2019-01-08T10:19:02.551Z,99031.16
2019-01-08T10:21:32.088Z,99033.31
2019-01-08T10:24:02.118Z,99033.00
2019-01-08T10:26:31.649Z,99029.47
2019-01-08T10:29:01.037Z,99034.34
2019-01-08T10:31:32.584Z,99039.73
2019-01-08T10:34:01.799Z,99039.73
2019-01-08T10:36:31.291Z,99033.50
2019-01-08T10:39:00.786Z,99034.84
2019-01-08T10:41:30.266Z,99043.76
2019-01-08T10:43:59.783Z,99036.69
2019-01-08T10:46:37.449Z,99034.00
2019-01-08T10:49:02.793Z,99033.00
2019-01-08T10:51:32.328Z,99035.69
2019-01-08T10:54:01.822Z,99038.03
2019-01-08T10:56:31.174Z,99042.06
2019-01-08T10:59:07.589Z,99042.06
2019-01-08T11:01:40.312Z,99046.10
2019-01-08T11:04:03.608Z,99046.60
2019-01-08T11:06:33.103Z,99048.30
2019-01-08T11:09:03.046Z,99043.41
2019-01-08T11:11:34.355Z,99041.76
2019-01-08T11:14:04.074Z,99048.30
2019-01-08T11:16:33.530Z,99045.79
2019-01-08T11:19:03.006Z,99055.20
2019-01-08T11:21:32.655Z,99056.86
2019-01-08T11:24:02.301Z,99060.89
2019-01-08T11:26:31.815Z,99066.27
2019-01-08T11:29:01.318Z,99064.92
2019-01-08T11:31:30.772Z,99065.42
2019-01-08T11:34:00.344Z,99054.67
2019-01-08T11:36:29.795Z,99059.23
2019-01-08T11:38:59.347Z,99059.55
2019-01-08T11:41:28.922Z,99050.13
2019-01-08T11:43:58.471Z,99060.39
2019-01-08T11:46:28.051Z,99062.58
2019-01-08T11:48:57.686Z,99055.86
2019-01-08T11:51:27.269Z,99051.83
2019-01-08T11:53:56.851Z,99050.48
2019-01-08T11:56:26.414Z,99047.30
2019-01-08T11:58:55.929Z,99039.23
2019-01-08T12:01:25.399Z,99045.42
2019-01-08T12:03:54.945Z,99042.73
2019-01-08T12:06:24.383Z,99048.45
2019-01-08T12:08:53.902Z,99047.11
2019-01-08T12:11:23.652Z,99050.30
2019-01-08T12:13:53.101Z,99057.36
2019-01-08T12:16:22.674Z,99062.24
2019-01-08T12:18:52.212Z,99066.27
2019-01-08T12:21:21.674Z,99068.97
2019-01-08T12:23:51.080Z,99067.09
2019-01-08T12:26:20.656Z,99065.25
2019-01-08T12:28:50.154Z,99071.97
2019-01-08T12:31:19.809Z,99075.50
2019-01-08T12:33:49.460Z,99073.66
2019-01-08T12:36:19.031Z,99078.69
2019-01-08T12:38:48.633Z,99079.53
2019-01-08T12:41:18.179Z,99088.45
2019-01-08T12:43:47.842Z,99079.03
2019-01-08T12:46:17.461Z,99083.06
2019-01-08T12:48:47.104Z,99084.73
2019-01-08T12:51:16.622Z,99086.07
2019-01-08T12:53:46.180Z,99082.38
2019-01-08T12:56:15.772Z,99079.34
2019-01-08T12:58:45.396Z,99080.19
2019-01-08T13:01:14.987Z,99081.53
2019-01-08T13:03:44.547Z,99077.50
2019-01-08T13:06:14.206Z,99082.38
2019-01-08T13:08:43.558Z,99090.45
2019-01-08T13:11:13.133Z,99089.95
2019-01-08T13:13:42.726Z,99089.95
2019-01-08T13:16:12.175Z,99088.61
2019-01-08T13:18:41.587Z,99091.80
2019-01-08T13:21:11.063Z,99098.86
2019-01-08T13:23:40.561Z,99093.14
2019-01-08T13:26:10.165Z,99096.17
2019-01-08T13:28:39.736Z,99094.83
2019-01-08T13:31:09.286Z,99101.05
2019-01-08T13:33:39.114Z,99107.78
2019-01-08T13:36:09.792Z,99103.21
2019-01-08T13:38:39.282Z,99111.28
2019-01-08T13:41:08.851Z,99110.28
2019-01-08T13:43:38.584Z,99111.28
2019-01-08T13:46:08.129Z,99112.62
2019-01-08T13:48:37.615Z,99112.13
2019-01-08T13:51:07.063Z,99120.54
2019-01-08T13:53:36.729Z,99118.84
2019-01-08T13:56:06.214Z,99123.38
2019-01-08T13:58:35.695Z,99125.42
2019-01-08T14:01:05.461Z,99126.23
2019-01-08T14:03:34.871Z,99127.58
2019-01-08T14:06:04.681Z,99125.73
2019-01-08T14:08:34.546Z,99129.27
2019-01-08T14:11:04.138Z,99136.48
2019-01-08T14:13:33.612Z,99131.11
2019-01-08T14:16:03.277Z,99143.06
2019-01-08T14:18:32.742Z,99139.52
2019-01-08T14:21:02.310Z,99151.80
2019-01-08T14:23:31.794Z,99147.26
2019-01-08T14:26:01.265Z,99149.41
2019-01-08T14:28:30.682Z,99151.61
2019-01-08T14:31:00.331Z,99158.67
2019-01-08T14:33:29.865Z,99155.48
2019-01-08T14:35:59.465Z,99156.30
2019-01-08T14:38:30.590Z,99161.68
2019-01-08T14:41:00.088Z,99164.72
2019-01-08T14:43:29.614Z,99167.41
2019-01-08T14:45:59.079Z,99168.25
2019-01-08T14:48:28.694Z,99167.91
2019-01-08T14:50:58.199Z,99172.28
2019-01-08T14:53:27.685Z,99173.63
2019-01-08T14:55:57.148Z,99176.32
2019-01-08T14:58:26.557Z,99177.17
2019-01-08T15:00:56.122Z,99183.36
2019-01-08T15:03:25.685Z,99182.02
2019-01-08T15:05:55.177Z,99179.33
2019-01-08T15:08:25.011Z,99187.39
2019-01-08T15:10:54.700Z,99181.20
2019-01-08T15:13:24.173Z,99188.42
2019-01-08T15:15:53.708Z,99188.24
2019-01-08T15:18:23.208Z,99189.27
2019-01-08T15:20:52.595Z,99194.97
2019-01-08T15:23:24.619Z,99198.50
2019-01-08T15:25:54.251Z,99210.61
2019-01-08T15:28:23.764Z,99211.45
2019-01-08T15:30:53.190Z,99214.64
2019-01-08T15:33:22.794Z,99214.64
2019-01-08T15:35:52.478Z,99223.22
2019-01-08T15:38:22.136Z,99223.56
2019-01-08T15:40:51.574Z,99231.63
2019-01-08T15:43:21.171Z,99232.97
2019-01-08T15:45:50.815Z,99239.35
2019-01-08T15:48:20.419Z,99245.08
2019-01-08T15:50:49.969Z,99239.70
2019-01-08T15:53:19.426Z,99245.08
2019-01-08T15:55:48.830Z,99245.23
2019-01-08T15:58:18.476Z,99247.77
2019-01-08T16:00:48.007Z,99255.00
2019-01-08T16:03:17.526Z,99258.19
2019-01-08T16:05:47.237Z,99258.69
2019-01-08T16:08:16.884Z,99267.60
2019-01-08T16:10:46.525Z,99270.29
2019-01-08T16:13:16.027Z,99274.02
2019-01-08T16:15:45.566Z,99282.89
2019-01-08T16:18:14.982Z,99285.59
2019-01-08T16:20:44.515Z,99286.11
2019-01-08T16:23:14.156Z,99302.25
2019-01-08T16:25:43.694Z,99300.37
2019-01-08T16:28:13.344Z,99306.29
2019-01-08T16:30:43.116Z,99308.45
2019-01-08T16:33:16.211Z,99318.89
2019-01-08T16:35:44.007Z,99320.23
2019-01-08T16:38:13.526Z,99323.78
2019-01-08T16:40:43.020Z,99328.31
2019-01-08T16:43:12.637Z,99334.54
2019-01-08T16:45:42.126Z,99339.07
2019-01-08T16:48:11.738Z,99339.57
2019-01-08T16:50:41.247Z,99344.45
2019-01-08T16:53:10.917Z,99353.37
2019-01-08T16:55:40.575Z,99360.59
2019-01-08T16:58:10.065Z,99360.09
2019-01-08T17:00:40.282Z,99362.78
2019-01-08T17:03:09.807Z,99369.51
2019-01-08T17:05:39.222Z,99377.58
2019-01-08T17:08:08.952Z,99381.94
2019-01-08T17:10:38.452Z,99382.96
2019-01-08T17:13:08.000Z,99385.97
2019-01-08T17:15:37.471Z,99391.70
2019-01-08T17:18:06.967Z,99392.70
2019-01-08T17:20:36.521Z,99395.23
2019-01-08T17:23:06.223Z,99404.66
2019-01-08T17:25:36.045Z,99409.19
2019-01-08T17:28:05.823Z,99419.95
2019-01-08T17:30:35.308Z,99425.33
2019-01-08T17:33:04.911Z,99436.44
2019-01-08T17:35:34.473Z,99440.80
2019-01-08T17:38:04.710Z,99437.61
2019-01-08T17:40:34.348Z,99443.34
2019-01-08T17:43:03.899Z,99449.03
2019-01-08T17:45:33.483Z,99446.84
2019-01-08T17:48:02.969Z,99452.92
2019-01-08T17:50:32.526Z,99459.66
2019-01-08T17:53:02.506Z,99467.72
2019-01-08T17:55:31.988Z,99476.11
2019-01-08T17:58:54.089Z,99473.42
2019-01-08T18:01:26.899Z,99485.88
2019-01-08T18:03:56.535Z,99493.60
2019-01-08T18:06:26.027Z,99481.67
2019-01-08T18:08:55.678Z,99492.44
2019-01-08T18:11:25.330Z,99508.90
2019-01-08T18:13:54.835Z,99504.05
2019-01-08T18:16:24.655Z,99517.82
2019-01-08T18:18:54.507Z,99511.09
2019-01-08T18:21:24.336Z,99516.97
2019-01-08T18:23:53.777Z,99525.89
2019-01-08T18:26:23.545Z,99523.55
2019-01-08T18:28:53.150Z,99527.59
2019-01-08T18:31:22.740Z,99535.48
2019-01-08T18:33:52.523Z,99538.67
2019-01-08T18:36:22.078Z,99543.55
2019-01-08T18:38:51.873Z,99546.25
2019-01-08T18:41:21.460Z,99554.81
2019-01-08T18:43:51.003Z,99567.45
2019-01-08T18:46:21.123Z,99559.03
2019-01-08T18:48:50.889Z,99571.63
2019-01-08T18:51:20.634Z,99558.67
2019-01-08T18:53:50.095Z,99572.66
2019-01-08T18:56:19.659Z,99581.55
2019-01-08T18:58:49.215Z,99589.80
2019-01-08T19:01:18.819Z,99594.68
2019-01-08T19:03:48.363Z,99589.44
2019-01-08T19:06:17.990Z,99603.75
2019-01-08T19:09:23.411Z,99600.20
2019-01-08T19:11:53.743Z,99603.42
2019-01-08T19:14:25.499Z,99594.64
2019-01-08T19:16:55.021Z,99605.94
2019-01-08T19:19:24.669Z,99614.01
2019-01-08T19:21:54.201Z,99608.27
2019-01-08T19:24:23.993Z,99619.03
2019-01-08T19:26:53.525Z,99618.19
2019-01-08T19:29:22.968Z,99623.07
2019-01-08T19:31:52.520Z,99626.26
2019-01-08T19:34:22.246Z,99632.63
2019-01-08T19:36:51.987Z,99638.54
2019-01-08T19:39:22.621Z,99639.36
2019-01-08T19:41:52.950Z,99647.42
2019-01-08T19:44:22.507Z,99647.95
2019-01-08T19:46:52.192Z,99658.19
2019-01-08T19:49:21.698Z,99655.18
2019-01-08T19:51:52.370Z,99665.94
2019-01-08T19:54:21.989Z,99665.09
2019-01-08T19:56:51.765Z,99663.74
2019-01-08T19:59:21.411Z,99678.89
2019-01-08T20:01:51.260Z,99674.33
2019-01-08T20:04:21.067Z,99679.22
2019-01-08T20:06:50.721Z,99679.72
2019-01-08T20:09:25.084Z,99681.59
2019-01-08T20:11:52.040Z,99675.67
2019-01-08T20:14:22.920Z,99686.44
2019-01-08T20:16:52.446Z,99684.28
2019-01-08T20:19:21.955Z,99700.42
2019-01-08T20:21:51.508Z,99689.30
2019-01-08T20:24:21.119Z,99700.06
2019-01-08T20:26:50.604Z,99704.45
2019-01-08T20:29:20.458Z,99705.44
2019-01-08T20:31:52.286Z,99703.75
2019-01-08T20:34:26.414Z,99716.20
2019-01-08T20:36:53.266Z,99713.16
2019-01-08T20:39:22.906Z,99727.64
2019-01-08T20:41:52.606Z,99731.17
2019-01-08T20:44:22.002Z,99738.39
2019-01-08T20:46:51.616Z,99736.70
2019-01-08T20:49:21.092Z,99752.84
2019-01-08T20:51:50.569Z,99754.54
2019-01-08T20:54:20.047Z,99746.96
2019-01-08T20:56:49.542Z,99758.08
2019-01-08T20:59:19.248Z,99761.09
2019-01-08T21:01:48.856Z,99769.03
2019-01-08T21:04:18.719Z,99768.50
2019-01-08T21:06:48.287Z,99763.97
2019-01-08T21:09:17.992Z,99771.55
2019-01-08T21:11:47.544Z,99779.62
2019-01-08T21:14:17.194Z,99787.55
2019-01-08T21:16:48.076Z,99795.95
2019-01-08T21:19:17.615Z,99809.89
2019-01-08T21:21:48.846Z,99794.95
2019-01-08T21:24:18.844Z,99802.53
2019-01-08T21:26:48.738Z,99800.66
2019-01-08T21:29:18.577Z,99805.91
2019-01-08T21:31:48.577Z,99807.75
2019-01-08T21:34:18.076Z,99816.98
2019-01-08T21:36:47.846Z,99811.12
2019-01-08T21:39:17.407Z,99811.97
2019-01-08T21:41:46.916Z,99822.56
2019-01-08T21:44:16.539Z,99828.47
2019-01-08T21:46:46.310Z,99829.28
2019-01-08T21:51:44.269Z,99835.88
2019-01-08T21:54:14.041Z,99826.28
2019-01-08T21:56:43.650Z,99834.36
2019-01-08T21:59:13.250Z,99849.52
2019-01-08T22:01:44.045Z,99861.13
2019-01-08T22:04:13.631Z,99859.26
2019-01-08T22:06:43.536Z,99858.27
2019-01-08T22:09:13.134Z,99876.61
2019-01-08T22:11:42.833Z,99863.16
2019-01-08T22:14:12.304Z,99868.05
2019-01-08T22:16:42.767Z,99863.84
2019-01-08T22:19:12.370Z,99874.61
2019-01-08T22:21:41.948Z,99885.38
2019-01-08T22:24:11.522Z,99883.53
2019-01-08T22:26:41.190Z,99883.89
2019-01-08T22:29:10.736Z,99890.09
2019-01-08T22:31:41.270Z,99905.91
2019-01-08T22:34:10.764Z,99904.89
2019-01-08T22:36:40.230Z,99905.91
2019-01-08T22:39:09.693Z,99915.66
2019-01-08T22:41:39.536Z,99908.93
2019-01-08T22:44:08.947Z,99920.55
2019-01-08T22:46:38.853Z,99922.91
2019-01-08T22:49:08.314Z,99933.68
2019-01-08T22:51:39.222Z,99935.35
2019-01-08T22:54:08.789Z,99941.75
2019-01-08T22:56:38.345Z,99947.96
2019-01-08T22:59:07.801Z,99953.34
2019-01-08T23:01:40.575Z,99956.56
2019-01-08T23:04:12.684Z,99963.28
2019-01-08T23:06:42.278Z,99974.05
2019-01-08T23:09:12.474Z,99966.47
2019-01-08T23:11:44.163Z,99980.42
2019-01-08T23:14:13.687Z,99972.84
2019-01-08T23:16:43.181Z,99979.25
2019-01-08T23:19:12.608Z,99979.38
2019-01-08T23:21:42.208Z,99984.94
2019-01-08T23:24:11.697Z,99994.48
2019-01-08T23:26:41.172Z,99994.00
2019-01-08T23:29:10.656Z,100000.03
2019-01-08T23:31:40.318Z,99997.84
2019-01-08T23:34:09.971Z,100013.13
2019-01-08T23:36:39.513Z,100017.34
2019-01-08T23:39:09.250Z,100013.80
2019-01-08T23:41:38.944Z,100031.78
2019-01-08T23:44:08.455Z,100020.69
2019-01-08T23:46:37.933Z,100026.89
2019-01-08T23:49:07.517Z,100031.94
2019-01-08T23:51:37.202Z,100041.00
2019-01-08T23:54:06.826Z,100046.87
2019-01-08T23:56:36.681Z,100055.97
2019-01-08T23:59:06.318Z,100054.63
